Time;durP1;ratioP1;P1;durP2;ratioP2;P2;SDS_P1;SDS_P2;PMS_P1;PMS_P2;Temp;Humidity;BMP_temperature;BMP_pressure;BME280_temperature;BME280_humidity;BME280_pressure;Samples;Min_cycle;Max_cycle;Signal;HPM_P1;HPM_P2
2023/11/01 00:00:24;;;;;;;3.47;2.60;;;;;;;11.35;83.72;99048.27;1766913;81;25618;-57
2023/11/01 00:02:54;;;;;;;3.10;2.72;;;;;;;11.35;83.67;99053.69;1767157;81;32387;-59
2023/11/01 00:05:21;;;;;;;4.12;2.45;;;;;;;11.36;83.76;99063.97;1766974;81;25621;-59
2023/11/01 00:07:47;;;;;;;3.45;2.20;;;;;;;11.35;83.71;99064.52;1766918;81;25362;-60
2023/11/01 00:10:14;;;;;;;2.72;2.42;;;;;;;11.35;83.67;99070.50;1766982;81;27097;-56
2023/11/01 00:12:40;;;;;;;3.15;2.52;;;;;;;11.36;83.64;99075.58;1766904;81;25666;-59
2023/11/01 00:15:10;;;;;;;4.87;2.98;;;;;;;11.35;83.53;99066.45;1766992;81;25488;-58
2023/11/01 00:17:36;;;;;;;3.62;2.50;;;;;;;11.35;83.46;99071.86;1767103;81;25626;-58
2023/11/01 00:20:07;;;;;;;5.08;2.72;;;;;;;11.35;83.23;99086.75;1766993;81;25509;-59
2023/11/01 00:22:33;;;;;;;5.20;2.50;;;;;;;11.34;83.19;99086.52;1737553;81;27415;-59
2023/11/01 00:25:00;;;;;;;3.87;2.27;;;;;;;11.33;83.40;99090.37;1766887;81;25680;-58
2023/11/01 00:27:31;;;;;;;2.40;2.10;;;;;;;11.33;83.34;99089.80;1766964;81;25396;-59
2023/11/01 00:30:00;;;;;;;3.85;2.45;;;;;;;11.32;83.08;99097.71;1766631;81;25693;-58
2023/11/01 00:32:27;;;;;;;3.83;2.27;;;;;;;11.32;83.04;99091.48;1766912;81;25416;-58
2023/11/01 00:34:54;;;;;;;2.72;2.30;;;;;;;11.28;82.74;99096.80;1767045;81;27328;-59
2023/11/01 00:37:21;;;;;;;3.10;2.22;;;;;;;11.26;82.62;99099.07;1766886;81;25899;-59
2023/11/01 00:39:49;;;;;;;3.37;2.37;;;;;;;11.23;82.55;99101.10;1766986;81;25435;-58
2023/11/01 00:42:18;;;;;;;2.60;2.30;;;;;;;11.19;82.30;99109.13;1740897;81;25961;-58
2023/11/01 00:44:45;;;;;;;6.92;2.37;;;;;;;11.16;82.37;99113.86;1767148;81;25455;-59
2023/11/01 00:47:13;;;;;;;2.47;2.27;;;;;;;11.11;82.31;99110.03;1767261;81;27279;-59
2023/11/01 00:49:39;;;;;;;6.90;2.35;;;;;;;11.07;82.22;99140.27;1767112;81;25439;-59
2023/11/01 00:52:06;;;;;;;3.00;1.98;;;;;;;11.02;82.15;99118.85;1767241;81;25582;-59
2023/11/01 00:54:33;;;;;;;2.90;2.08;;;;;;;10.98;82.21;99132.28;1767055;81;25616;-60
2023/11/01 00:57:02;;;;;;;3.47;2.37;;;;;;;10.93;82.13;99127.09;1767194;81;25507;-58
2023/11/01 00:59:33;;;;;;;2.80;1.98;;;;;;;10.90;82.18;99137.81;1767164;81;26792;-58
2023/11/01 01:01:59;;;;;;;4.60;2.02;;;;;;;10.86;82.22;99142.30;1767066;81;25460;-58
2023/11/01 01:04:27;;;;;;;4.28;1.95;;;;;;;10.82;82.28;99151.66;1767121;81;25413;-58
2023/11/01 01:06:54;;;;;;;2.13;1.67;;;;;;;10.77;82.13;99146.48;1764006;81;26575;-60
2023/11/01 01:09:23;;;;;;;3.55;1.77;;;;;;;10.74;82.14;99153.33;1760094;81;25411;-59
2023/11/01 01:11:50;;;;;;;1.87;1.72;;;;;;;10.71;82.26;99159.44;1760089;81;27320;-60
2023/11/01 01:14:17;;;;;;;2.40;1.70;;;;;;;10.69;82.23;99152.20;1759946;81;25393;-60
2023/11/01 01:16:46;;;;;;;2.80;1.85;;;;;;;10.66;82.17;99162.37;1760020;81;25417;-59
2023/11/01 01:19:13;;;;;;;1.67;1.57;;;;;;;10.63;82.22;99146.81;1760020;81;25577;-59
2023/11/01 01:21:43;;;;;;;1.98;1.77;;;;;;;10.60;82.31;99152.89;1760076;81;25423;-58
2023/11/01 01:24:09;;;;;;;1.85;1.70;;;;;;;10.59;82.39;99160.77;1760363;81;28131;-59
2023/11/01 01:26:35;;;;;;;14.20;11.43;;;;;;;10.57;82.35;99157.61;1759975;81;25463;-59
2023/11/01 01:29:02;;;;;;;7.92;5.47;;;;;;;10.59;82.37;99156.70;1760078;81;25544;-59
2023/11/01 01:31:30;;;;;;;2.15;1.80;;;;;;;10.61;82.51;99155.26;1760030;81;25634;-58
2023/11/01 01:33:56;;;;;;;2.22;1.50;;;;;;;10.61;82.10;99156.61;1738538;81;25631;-60
2023/11/01 01:36:23;;;;;;;1.67;1.40;;;;;;;10.57;81.94;99153.02;1759984;81;27403;-59
2023/11/01 01:38:50;;;;;;;2.30;1.67;;;;;;;10.54;81.77;99158.28;1759323;81;25504;-58
2023/11/01 01:41:16;;;;;;;1.55;1.30;;;;;;;10.50;81.73;99164.92;1758434;81;25873;-59
2023/11/01 01:43:42;;;;;;;2.08;1.60;;;;;;;10.45;81.75;99167.84;1758974;81;25693;-59
2023/11/01 01:46:13;;;;;;;3.45;1.67;;;;;;;10.43;81.91;99161.41;1758558;81;25638;-57
2023/11/01 01:48:42;;;;;;;1.40;1.30;;;;;;;10.41;81.93;99162.31;1759035;81;28334;-59
2023/11/01 01:51:12;;;;;;;2.58;1.70;;;;;;;10.38;81.89;99157.58;1759102;81;33566;-59
2023/11/01 01:53:43;;;;;;;28.65;22.27;;;;;;;10.35;81.89;99161.52;1759059;81;25651;-58
2023/11/01 01:56:11;;;;;;;5.30;3.45;;;;;;;10.37;82.38;99164.13;1759745;81;26516;-59
2023/11/01 01:58:41;;;;;;;2.25;1.35;;;;;;;10.43;82.33;99167.39;1760075;81;25437;-59
2023/11/01 02:01:09;;;;;;;2.67;1.12;;;;;;;10.42;82.12;99176.07;1738421;81;27854;-59
2023/11/01 02:03:37;;;;;;;2.52;1.30;;;;;;;10.42;82.07;99175.27;1759953;81;25536;-59
2023/11/01 02:06:07;;;;;;;2.40;1.55;;;;;;;10.39;82.07;99178.09;1760000;81;25427;-59
2023/11/01 02:08:35;;;;;;;1.87;1.22;;;;;;;10.38;81.88;99179.20;1760021;81;26204;-58
2023/11/01 02:11:04;;;;;;;5.05;1.30;;;;;;;10.37;81.83;99180.88;1759423;81;25665;-59
2023/11/01 02:13:32;;;;;;;1.90;1.62;;;;;;;10.36;81.93;99184.16;1738396;81;27857;-60
2023/11/01 02:16:00;;;;;;;1.50;1.25;;;;;;;10.35;81.86;99188.00;1759943;81;25438;-57
2023/11/01 02:18:27;;;;;;;3.37;1.42;;;;;;;10.33;81.83;99190.23;1738540;81;25588;-59
2023/11/01 02:20:55;;;;;;;2.83;1.20;;;;;;;10.32;81.78;99191.91;1759992;81;25525;-59
2023/11/01 02:23:34;;;;;;;1.77;1.40;;;;;;;10.29;81.85;99194.13;1760033;81;25602;-59
2023/11/01 02:26:03;;;;;;;2.60;1.52;;;;;;;10.27;81.91;99193.68;1760213;81;27324;-59
2023/11/01 02:28:29;;;;;;;2.17;1.40;;;;;;;10.25;81.83;99191.09;1759937;81;25557;-59
2023/11/01 02:30:56;;;;;;;3.45;2.05;;;;;;;10.22;81.88;99203.92;1759996;81;25630;-59
2023/11/01 02:33:23;;;;;;;2.77;1.77;;;;;;;10.21;82.08;99201.76;1738401;81;25634;-56
2023/11/01 02:35:49;;;;;;;3.62;1.32;;;;;;;10.21;82.15;99205.81;1760045;81;25488;-59
2023/11/01 02:38:17;;;;;;;1.90;1.40;;;;;;;10.19;82.28;99202.66;1760008;81;27395;-59
2023/11/01 02:40:43;;;;;;;2.50;1.42;;;;;;;10.18;82.25;99199.75;1759988;81;25456;-58
2023/11/01 02:43:10;;;;;;;4.60;1.57;;;;;;;10.17;82.20;99200.86;1760082;81;25479;-57
2023/11/01 02:45:38;;;;;;;3.37;1.42;;;;;;;10.17;82.33;99214.94;1760101;81;25584;-59
2023/11/01 02:48:06;;;;;;;2.15;1.35;;;;;;;10.17;82.43;99216.28;1760155;81;25590;-60
2023/11/01 02:50:32;;;;;;;1.40;1.30;;;;;;;10.18;82.54;99216.50;1739023;81;27440;-59
2023/11/01 02:52:58;;;;;;;1.60;1.50;;;;;;;10.17;82.59;99217.07;1760132;81;25412;-61
2023/11/01 02:55:25;;;;;;;3.58;1.40;;;;;;;10.19;82.53;99218.09;1738224;81;25614;-60
2023/11/01 02:57:51;;;;;;;2.00;1.45;;;;;;;10.20;82.50;99222.36;1760142;81;25624;-58
2023/11/01 03:00:19;;;;;;;3.62;1.45;;;;;;;10.21;82.57;99229.34;1760009;81;25460;-58
2023/11/01 03:02:49;;;;;;;1.72;1.45;;;;;;;10.22;82.39;99232.30;1756900;81;27637;-58
2023/11/01 03:05:17;;;;;;;1.27;1.17;;;;;;;10.23;82.43;99237.38;1759924;81;25629;-59
2023/11/01 03:07:44;;;;;;;1.92;1.35;;;;;;;10.25;82.57;99230.28;1763695;81;25613;-59
2023/11/01 03:10:12;;;;;;;1.52;1.32;;;;;;;10.26;82.40;99231.84;1766969;81;25621;-57
2023/11/01 03:12:42;;;;;;;1.12;0.98;;;;;;;10.28;82.41;99237.70;1767021;81;25383;-56
2023/11/01 03:15:12;;;;;;;1.22;1.10;;;;;;;10.28;82.34;99235.81;1740912;81;27731;-59
2023/11/01 03:17:42;;;;;;;1.50;1.20;;;;;;;10.29;82.32;99246.05;1767012;81;25383;-60
2023/11/01 03:20:13;;;;;;;3.42;1.02;;;;;;;10.30;82.19;99246.30;1767241;81;25557;-59
2023/11/01 03:22:40;;;;;;;1.35;0.95;;;;;;;10.30;82.30;99247.64;1741452;81;25636;-59
2023/11/01 03:25:09;;;;;;;2.70;1.42;;;;;;;10.32;82.21;99252.72;1767112;81;25456;-58
2023/11/01 03:27:37;;;;;;;1.55;0.90;;;;;;;10.32;82.25;99246.77;1767181;81;27335;-57
2023/11/01 03:30:07;;;;;;;1.00;1.00;;;;;;;10.35;82.35;99249.36;1766895;81;25623;-58
2023/11/01 03:32:33;;;;;;;1.50;1.00;;;;;;;10.35;82.36;99248.82;1767070;81;25572;-57
2023/11/01 03:34:59;;;;;;;1.07;1.00;;;;;;;10.37;82.38;99252.52;1766909;81;25673;-56
2023/11/01 03:37:25;;;;;;;1.40;0.90;;;;;;;10.38;82.40;99252.19;1766974;81;25557;-59
2023/11/01 03:39:53;;;;;;;2.60;0.98;;;;;;;10.40;82.50;99254.56;1767042;81;29485;-58
2023/11/01 03:42:20;;;;;;;3.52;1.05;;;;;;;10.43;82.53;99260.66;1766868;81;25783;-56
2023/11/01 03:44:49;;;;;;;1.17;1.07;;;;;;;10.44;82.49;99255.48;1767029;81;25450;-57
2023/11/01 03:47:17;;;;;;;1.37;1.20;;;;;;;10.46;82.63;99261.34;1766977;81;25628;-59
2023/11/01 03:49:44;;;;;;;4.30;1.20;;;;;;;10.47;82.57;99262.91;1767101;81;25568;-57
2023/11/01 03:52:12;;;;;;;1.77;1.67;;;;;;;10.49;82.68;99261.23;1766974;81;27385;-57
2023/11/01 03:54:38;;;;;;;3.92;1.70;;;;;;;10.49;82.66;99261.23;1766872;81;25422;-58
2023/11/01 03:57:06;;;;;;;1.70;1.60;;;;;;;10.48;82.70;99264.50;1740516;81;25529;-56
2023/11/01 03:59:34;;;;;;;2.35;1.80;;;;;;;10.47;82.92;99264.27;1766918;81;25629;-58
2023/11/01 04:02:02;;;;;;;2.10;1.90;;;;;;;10.47;82.95;99265.61;1767035;81;25401;-56
2023/11/01 04:04:32;;;;;;;2.60;2.20;;;;;;;10.46;83.13;99263.48;1767125;81;28011;-57
2023/11/01 04:07:01;;;;;;;3.85;2.47;;;;;;;10.45;83.14;99280.03;1766855;81;25777;-57
2023/11/01 04:09:27;;;;;;;2.72;2.45;;;;;;;10.44;83.02;99270.36;1767006;81;25427;-55
2023/11/01 04:11:54;;;;;;;3.00;2.55;;;;;;;10.42;83.13;99275.28;1766946;81;26410;-57
2023/11/01 04:14:20;;;;;;;3.22;2.87;;;;;;;10.40;83.08;99268.89;1767030;81;25460;-55
2023/11/01 04:16:46;;;;;;;2.90;2.45;;;;;;;10.39;83.10;99268.64;1766948;81;27255;-59
2023/11/01 04:19:14;;;;;;;4.62;2.87;;;;;;;10.37;83.00;99272.25;1766976;81;25587;-56
2023/11/01 04:21:42;;;;;;;3.20;2.90;;;;;;;10.36;82.96;99282.82;1767254;81;25395;-55
2023/11/01 04:24:10;;;;;;;2.75;2.50;;;;;;;10.33;82.87;99283.48;1767140;81;25482;-58
2023/11/01 04:26:37;;;;;;;2.98;2.67;;;;;;;10.29;82.89;99281.19;1767197;81;25631;-55
2023/11/01 04:29:05;;;;;;;6.95;3.77;;;;;;;10.30;83.02;99280.08;1767139;81;28016;-58
2023/11/01 04:31:31;;;;;;;2.42;2.17;;;;;;;10.27;82.87;99286.14;1767039;81;25672;-58
2023/11/01 04:33:57;;;;;;;2.60;2.40;;;;;;;10.24;82.81;99280.82;1767148;81;25616;-55
2023/11/01 04:36:24;;;;;;;2.60;2.37;;;;;;;10.24;82.91;99281.39;1767024;81;27740;-56
2023/11/01 04:38:55;;;;;;;4.55;2.85;;;;;;;10.22;82.94;99291.75;1740678;81;25589;-56
2023/11/01 04:41:27;;;;;;;2.90;2.60;;;;;;;10.21;83.11;99285.53;1767269;81;27293;-59
2023/11/01 04:43:52;;;;;;;2.83;2.37;;;;;;;10.20;83.17;99283.97;1766998;81;25400;-58
2023/11/01 04:46:18;;;;;;;3.25;2.95;;;;;;;10.20;83.21;99295.31;1767088;81;25587;-59
2023/11/01 04:48:46;;;;;;;5.47;2.92;;;;;;;10.20;83.32;99277.75;1767041;81;25733;-59
2023/11/01 04:51:12;;;;;;;4.12;3.27;;;;;;;10.18;83.10;99290.81;1767178;81;25629;-58
2023/11/01 04:53:38;;;;;;;5.30;2.70;;;;;;;10.16;83.07;99300.59;1740607;81;27339;-59
2023/11/01 04:56:07;;;;;;;3.85;2.83;;;;;;;10.14;82.91;99298.79;1766969;81;27205;-57
2023/11/01 04:58:37;;;;;;;;;;;;;;;10.12;82.79;99296.98;1769768;81;25574;-59
2023/11/01 05:01:05;;;;;;;3.22;2.60;;;;;;;10.08;82.58;99305.53;1767113;81;25631;-59
2023/11/01 05:03:38;;;;;;;4.67;2.77;;;;;;;10.03;82.33;99304.38;1767235;81;25423;-57
2023/11/01 05:06:10;;;;;;;3.05;2.60;;;;;;;9.97;82.10;99306.46;1767169;81;28402;-57
2023/11/01 05:08:36;;;;;;;5.78;2.65;;;;;;;9.91;81.94;99307.80;1762461;81;25569;-57
2023/11/01 05:11:05;;;;;;;3.52;2.62;;;;;;;9.84;81.70;99309.66;1760043;81;25601;-57
2023/11/01 05:13:32;;;;;;;3.37;2.70;;;;;;;9.79;81.67;99317.14;1760077;81;25609;-58
2023/11/01 05:16:00;;;;;;;4.00;2.50;;;;;;;9.72;81.59;99319.81;1760062;81;25491;-56
2023/11/01 05:18:27;;;;;;;3.17;2.87;;;;;;;9.67;81.56;99328.11;1760029;81;27368;-57
2023/11/01 05:20:54;;;;;;;3.72;2.75;;;;;;;9.62;81.55;99328.83;1738428;81;25589;-57
2023/11/01 05:23:20;;;;;;;3.55;2.30;;;;;;;9.57;81.41;99341.16;1760147;81;25450;-60
2023/11/01 05:25:48;;;;;;;3.45;2.37;;;;;;;9.50;81.50;99346.53;1760177;81;25443;-59
2023/11/01 05:28:15;;;;;;;4.25;2.60;;;;;;;9.46;81.42;99348.84;1760115;81;25408;-58
2023/11/01 05:30:41;;;;;;;2.70;2.22;;;;;;;9.39;81.36;99347.22;1760110;81;27458;-58
2023/11/01 05:33:08;;;;;;;4.95;2.60;;;;;;;9.35;81.30;99354.60;1759944;81;27222;-58
2023/11/01 05:35:36;;;;;;;2.98;2.75;;;;;;;9.31;81.33;99355.56;1760069;81;25621;-58
2023/11/01 05:38:06;;;;;;;5.33;2.77;;;;;;;9.27;81.45;99362.73;1759983;81;25582;-55
2023/11/01 05:40:33;;;;;;;2.80;2.60;;;;;;;9.23;81.43;99367.17;1760124;81;25553;-55
2023/11/01 05:42:59;;;;;;;2.83;2.62;;;;;;;9.19;81.52;99375.13;1760063;81;27876;-56
2023/11/01 05:45:26;;;;;;;4.92;2.42;;;;;;;9.16;81.57;99375.22;1759951;81;25495;-57
2023/11/01 05:47:54;;;;;;;3.77;2.80;;;;;;;9.11;81.69;99380.80;1760160;81;25505;-57
2023/11/01 05:50:24;;;;;;;4.50;2.90;;;;;;;9.07;81.82;99383.87;1760039;81;25555;-58
2023/11/01 05:52:56;;;;;;;5.80;2.62;;;;;;;9.04;81.96;99387.23;1760221;81;25605;-56
2023/11/01 05:55:24;;;;;;;3.35;3.05;;;;;;;9.04;82.17;99399.91;1760083;81;27340;-58
2023/11/01 05:57:50;;;;;;;4.08;2.90;;;;;;;9.01;82.27;99400.55;1738446;81;25821;-59
2023/11/01 06:00:18;;;;;;;3.27;2.83;;;;;;;9.01;82.37;99404.06;1760167;81;25601;-57
2023/11/01 06:02:46;;;;;;;4.70;3.52;;;;;;;9.00;82.61;99417.86;1760290;81;26387;-58
2023/11/01 06:05:15;;;;;;;3.72;3.12;;;;;;;9.02;82.99;99416.98;1760078;81;25466;-59
2023/11/01 06:07:40;;;;;;;4.87;3.70;;;;;;;9.04;83.30;99420.95;1759636;81;27393;-59
2023/11/01 06:10:10;;;;;;;4.50;3.25;;;;;;;9.06;83.56;99423.31;1760013;81;25560;-58
2023/11/01 06:12:36;;;;;;;6.37;3.85;;;;;;;9.08;83.74;99424.59;1760077;81;25609;-58
2023/11/01 06:15:04;;;;;;;3.52;3.15;;;;;;;9.12;83.65;99429.57;1760005;81;25694;-59
2023/11/01 06:17:30;;;;;;;3.50;3.20;;;;;;;9.13;83.63;99432.52;1759999;81;25407;-55
2023/11/01 06:19:56;;;;;;;3.05;2.70;;;;;;;9.15;83.63;99432.20;1760021;81;27336;-57
2023/11/01 06:22:23;;;;;;;3.12;2.83;;;;;;;9.15;83.25;99440.30;1759939;81;25396;-57
2023/11/01 06:24:49;;;;;;;2.85;2.55;;;;;;;9.16;83.12;99439.19;1759983;81;25646;-60
2023/11/01 06:27:15;;;;;;;3.90;2.60;;;;;;;9.15;83.00;99435.68;1759984;81;25628;-54
2023/11/01 06:29:44;;;;;;;2.55;2.30;;;;;;;9.17;83.07;99447.50;1738450;81;25646;-55
2023/11/01 06:32:12;;;;;;;2.87;2.30;;;;;;;9.19;82.66;99446.63;1760143;81;32303;-56
2023/11/01 06:34:38;;;;;;;3.33;2.58;;;;;;;9.21;82.60;99453.05;1759886;81;25461;-56
2023/11/01 06:37:07;;;;;;;4.37;2.77;;;;;;;9.22;82.32;99447.34;1759966;81;25444;-57
2023/11/01 06:39:33;;;;;;;3.87;2.40;;;;;;;9.24;82.25;99447.80;1760099;81;25830;-56
2023/11/01 06:41:59;;;;;;;2.60;2.40;;;;;;;9.25;82.07;99460.20;1760029;81;25421;-54
2023/11/01 06:44:26;;;;;;;3.17;2.20;;;;;;;9.26;81.89;99457.75;1759998;81;28054;-57
2023/11/01 06:46:54;;;;;;;2.62;2.37;;;;;;;9.26;81.42;99460.98;1738678;81;25512;-57
2023/11/01 06:49:20;;;;;;;5.08;2.50;;;;;;;9.25;81.34;99462.89;1759987;81;25621;-55
2023/11/01 06:51:47;;;;;;;7.65;2.20;;;;;;;9.24;81.13;99457.25;1759922;81;25674;-56
2023/11/01 06:54:13;;;;;;;2.40;2.20;;;;;;;9.23;80.98;99464.31;1759983;81;25456;-56
2023/11/01 06:56:45;;;;;;;3.98;2.30;;;;;;;9.25;81.14;99462.11;1759964;81;28368;-58
2023/11/01 06:59:13;;;;;;;3.00;2.05;;;;;;;9.27;80.93;99470.67;1759923;81;25481;-53
2023/11/01 07:01:41;;;;;;;2.67;2.35;;;;;;;9.33;81.04;99471.54;1760003;81;25546;-56
2023/11/01 07:04:08;;;;;;;3.30;2.05;;;;;;;9.41;81.01;99478.02;1759941;81;25584;-57
2023/11/01 07:06:34;;;;;;;4.08;2.17;;;;;;;9.45;80.48;99480.33;1759988;81;25449;-58
2023/11/01 07:09:00;;;;;;;2.35;1.80;;;;;;;9.48;80.56;99485.09;1723843;82;27488;-56
2023/11/01 07:11:28;;;;;;;2.52;2.05;;;;;;;9.63;81.03;99487.81;1734404;82;25638;-58
2023/11/01 07:13:54;;;;;;;3.60;2.25;;;;;;;9.72;80.15;99487.78;1734537;82;25401;-57
2023/11/01 07:16:20;;;;;;;2.30;2.10;;;;;;;9.85;80.38;99487.36;1734377;82;25598;-59
2023/11/01 07:18:46;;;;;;;4.15;2.40;;;;;;;10.04;80.76;99493.15;1734454;82;25630;-59
2023/11/01 07:21:13;;;;;;;4.37;2.22;;;;;;;10.23;80.01;99487.90;1734482;82;27289;-57
2023/11/01 07:23:40;;;;;;;2.87;2.10;;;;;;;10.29;79.82;99486.61;1734354;82;25391;-57
2023/11/01 07:26:06;;;;;;;3.37;2.05;;;;;;;10.57;80.50;99507.23;1734393;82;25733;-54
2023/11/01 07:28:32;;;;;;;1.80;1.70;;;;;;;10.88;79.96;99499.31;1734378;82;25624;-57
2023/11/01 07:31:00;;;;;;;2.62;2.10;;;;;;;11.14;79.43;99499.09;1734445;82;25621;-56
2023/11/01 07:33:26;;;;;;;4.60;3.92;;;;;;;11.31;78.65;99504.13;1710843;82;27360;-56
2023/11/01 07:35:52;;;;;;;2.90;2.37;;;;;;;11.43;77.77;99500.09;1734306;82;25616;-56
2023/11/01 07:38:18;;;;;;;2.58;2.20;;;;;;;11.55;77.21;99504.77;1734326;82;25499;-56
2023/11/01 07:40:46;;;;;;;2.72;2.35;;;;;;;11.47;74.42;99506.41;1734328;82;27674;-57
2023/11/01 07:43:12;;;;;;;2.80;1.90;;;;;;;11.33;74.12;99509.42;1711360;82;25539;-57
2023/11/01 07:45:38;;;;;;;2.20;1.70;;;;;;;11.21;73.67;99508.80;1734433;82;27911;-57
2023/11/01 07:48:06;;;;;;;2.22;1.98;;;;;;;11.11;73.55;99511.92;1734327;82;25636;-56
2023/11/01 07:50:32;;;;;;;3.10;2.27;;;;;;;11.00;74.07;99517.52;1711006;82;25496;-58
2023/11/01 07:52:58;;;;;;;4.15;2.00;;;;;;;10.99;74.75;99526.75;1734366;82;26151;-59
2023/11/01 07:55:26;;;;;;;2.12;1.82;;;;;;;11.00;74.53;99525.07;1734446;82;25436;-58
2023/11/01 07:57:52;;;;;;;2.90;2.35;;;;;;;10.93;74.35;99532.93;1734328;82;29460;-58
2023/11/01 08:00:20;;;;;;;3.87;2.52;;;;;;;10.91;74.49;99522.19;1734324;82;25638;-59
2023/11/01 08:02:46;;;;;;;2.60;2.40;;;;;;;10.89;73.96;99532.55;1711227;82;25588;-57
2023/11/01 08:05:14;;;;;;;3.12;2.12;;;;;;;10.86;74.54;99539.41;1734433;82;25718;-57
2023/11/01 08:07:42;;;;;;;2.52;2.33;;;;;;;10.86;74.29;99551.58;1734637;81;25585;-59
2023/11/01 08:10:12;;;;;;;6.25;2.47;;;;;;;10.80;73.60;99550.20;1756296;81;27053;-57
2023/11/01 08:12:40;;;;;;;3.15;2.30;;;;;;;10.77;73.70;99563.81;1759822;81;25630;-58
2023/11/01 08:15:08;;;;;;;5.10;2.67;;;;;;;10.70;73.63;99554.08;1738442;81;25473;-57
2023/11/01 08:17:35;;;;;;;2.77;2.40;;;;;;;10.70;73.07;99564.11;1738703;81;25690;-56
2023/11/01 08:20:04;;;;;;;6.42;2.30;;;;;;;10.58;73.11;99558.83;1759992;81;25653;-57
2023/11/01 08:22:32;;;;;;;3.10;1.80;;;;;;;10.51;73.10;99566.67;1760024;81;27402;-58
2023/11/01 08:24:58;;;;;;;4.08;2.30;;;;;;;10.48;73.24;99576.00;1759884;81;26011;-55
2023/11/01 08:27:25;;;;;;;3.52;2.52;;;;;;;10.42;73.48;99572.13;1759940;81;25447;-57
2023/11/01 08:29:51;;;;;;;2.47;2.25;;;;;;;10.39;73.12;99578.17;1759873;81;25603;-58
2023/11/01 08:32:17;;;;;;;2.80;2.50;;;;;;;10.37;72.59;99576.36;1760032;81;25569;-58
2023/11/01 08:34:45;;;;;;;3.15;2.20;;;;;;;10.38;73.22;99577.92;1760043;81;27337;-59
2023/11/01 08:37:11;;;;;;;3.80;2.75;;;;;;;10.49;73.47;99574.86;1759989;81;25440;-56
2023/11/01 08:39:37;;;;;;;2.62;2.42;;;;;;;10.62;73.37;99577.90;1759931;81;25598;-58
2023/11/01 08:42:06;;;;;;;4.33;2.20;;;;;;;10.78;72.94;99588.97;1759951;81;25636;-57
2023/11/01 08:44:33;;;;;;;4.75;2.58;;;;;;;10.93;72.88;99595.70;1759968;81;25423;-57
2023/11/01 08:47:04;;;;;;;3.12;2.60;;;;;;;11.15;72.47;99603.53;1759937;81;27338;-58
2023/11/01 08:49:32;;;;;;;4.08;2.02;;;;;;;11.28;72.61;99594.12;1759914;81;25662;-56
2023/11/01 08:51:58;;;;;;;3.27;2.52;;;;;;;11.50;72.74;99591.63;1759907;81;25379;-56
2023/11/01 08:54:27;;;;;;;3.42;2.50;;;;;;;11.53;70.54;99605.88;1759891;81;26249;-56
2023/11/01 08:56:54;;;;;;;4.93;2.37;;;;;;;11.62;70.80;99609.85;1760301;81;25659;-58
2023/11/01 08:59:21;;;;;;;3.15;2.35;;;;;;;11.64;70.56;99615.72;1760020;81;27392;-57
2023/11/01 09:01:47;;;;;;;3.08;2.77;;;;;;;11.74;70.74;99618.80;1759887;81;25701;-58
2023/11/01 09:04:13;;;;;;;2.98;2.47;;;;;;;11.81;69.63;99615.56;1759959;81;25609;-54
2023/11/01 09:06:40;;;;;;;3.05;2.75;;;;;;;11.98;69.42;99614.63;1760053;81;26289;-57
2023/11/01 09:09:06;;;;;;;3.25;2.92;;;;;;;12.01;68.83;99626.16;1762065;81;25467;-55
2023/11/01 09:11:33;;;;;;;5.80;2.65;;;;;;;12.29;70.07;99618.76;1767227;81;27916;-59
2023/11/01 09:13:59;;;;;;;2.35;2.15;;;;;;;12.71;69.29;99627.49;1767053;81;25685;-57
2023/11/01 09:16:25;;;;;;;2.60;2.10;;;;;;;12.96;68.08;99624.00;1767128;81;25399;-57
2023/11/01 09:18:52;;;;;;;1.90;1.50;;;;;;;13.18;67.74;99620.01;1767094;81;25602;-58
2023/11/01 09:21:19;;;;;;;3.12;1.42;;;;;;;13.39;64.70;99628.02;1767164;81;25559;-57
2023/11/01 09:23:45;;;;;;;3.08;1.70;;;;;;;13.62;63.35;99622.28;1767138;81;27383;-59
2023/11/01 09:26:15;;;;;;;2.10;1.80;;;;;;;14.13;64.38;99632.58;1767051;81;25396;-59
2023/11/01 09:28:39;;;;;;;2.83;1.40;;;;;;;14.98;65.84;99632.30;1740623;81;25577;-57
2023/11/01 09:31:05;;;;;;;1.30;1.20;;;;;;;15.75;60.40;99636.30;1767081;81;25667;-58
2023/11/01 09:33:32;;;;;;;1.50;1.20;;;;;;;16.30;59.32;99630.67;1767148;81;25663;-58
2023/11/01 09:35:58;;;;;;;4.08;1.40;;;;;;;16.79;59.50;99635.37;1766546;81;27906;-58
2023/11/01 09:38:24;;;;;;;1.42;1.30;;;;;;;17.09;54.92;99646.17;1766048;81;25704;-60
2023/11/01 09:40:52;;;;;;;1.55;1.40;;;;;;;17.22;55.23;99640.70;1766257;81;25442;-58
2023/11/01 09:43:20;;;;;;;1.55;1.17;;;;;;;17.48;56.53;99628.15;1740523;81;26329;-57
2023/11/01 09:45:48;;;;;;;2.00;1.30;;;;;;;17.78;53.73;99632.81;1767280;81;25482;-58
2023/11/01 09:48:16;;;;;;;2.65;1.25;;;;;;;18.02;55.11;99627.42;1767121;81;27339;-58
2023/11/01 09:50:45;;;;;;;1.35;1.25;;;;;;;18.90;55.85;99620.93;1767013;81;25560;-58
2023/11/01 09:53:12;;;;;;;2.65;1.22;;;;;;;19.81;55.39;99625.11;1767219;81;25412;-59
2023/11/01 09:55:38;;;;;;;1.17;1.02;;;;;;;20.49;51.15;99620.31;1767061;81;25620;-59
2023/11/01 09:58:08;;;;;;;1.10;1.02;;;;;;;20.42;49.40;99621.69;1767088;81;25562;-52
2023/11/01 10:00:36;;;;;;;2.62;1.05;;;;;;;20.27;47.86;99616.77;1767110;81;27248;-52
2023/11/01 10:03:02;;;;;;;1.00;0.90;;;;;;;20.37;49.32;99624.83;1767003;81;25476;-51
2023/11/01 10:05:28;;;;;;;3.58;0.80;;;;;;;20.62;48.67;99623.43;1767144;81;25554;-56
2023/11/01 10:07:56;;;;;;;1.98;1.22;;;;;;;21.00;49.11;99616.95;1767154;81;25568;-59
2023/11/01 10:10:23;;;;;;;1.67;0.93;;;;;;;21.11;48.15;99619.06;1740904;81;25576;-59
2023/11/01 10:12:50;;;;;;;1.10;0.93;;;;;;;21.23;48.45;99624.73;1767083;81;27337;-59
2023/11/01 10:15:21;;;;;;;2.90;0.98;;;;;;;21.44;48.43;99619.77;1766976;81;25709;-60
2023/11/01 10:17:51;;;;;;;0.80;0.80;;;;;;;21.65;47.79;99614.78;1767032;81;25596;-59
2023/11/01 10:20:31;;;;;;;2.72;0.93;;;;;;;21.71;45.58;99615.94;1767021;81;25610;-60
2023/11/01 10:22:59;;;;;;;1.15;1.05;;;;;;;21.58;46.11;99618.34;1767040;81;25392;-60
2023/11/01 10:25:25;;;;;;;2.35;1.10;;;;;;;21.34;44.47;99611.73;1767028;81;27453;-58
2023/11/01 10:27:52;;;;;;;3.05;1.17;;;;;;;20.87;43.71;99614.63;1766930;81;25423;-58
2023/11/01 10:30:19;;;;;;;0.82;0.82;;;;;;;20.40;44.09;99624.83;1767003;81;25679;-59
2023/11/01 10:32:58;;;;;;;1.98;1.17;;;;;;;19.99;43.83;99614.76;1767026;81;25794;-60
2023/11/01 10:35:26;;;;;;;1.35;1.07;;;;;;;19.45;43.57;99626.33;1767226;81;25467;-61
2023/11/01 10:38:00;;;;;;;2.33;1.40;;;;;;;19.00;44.50;99611.98;1767160;81;28313;-63
2023/11/01 10:40:29;;;;;;;2.65;1.37;;;;;;;18.74;45.02;99614.34;1740832;81;25654;-59
2023/11/01 10:43:02;;;;;;;;;;;;;;;18.46;45.36;99621.97;1769725;81;25577;-61
2023/11/01 10:45:29;;;;;;;1.52;1.12;;;;;;;18.14;45.38;99627.15;1767031;81;26644;-59
2023/11/01 10:47:56;;;;;;;3.83;1.50;;;;;;;18.07;46.88;99630.59;1767088;81;25578;-60
2023/11/01 10:50:22;;;;;;;2.77;1.10;;;;;;;18.36;47.62;99631.46;1767042;81;27373;-60
2023/11/01 10:52:50;;;;;;;1.50;1.07;;;;;;;18.62;47.37;99633.23;1766975;81;25468;-59
2023/11/01 10:55:20;;;;;;;2.55;2.00;;;;;;;18.60;45.49;99634.20;1767031;81;25636;-59
2023/11/01 10:57:51;;;;;;;3.08;2.55;;;;;;;18.58;46.36;99638.69;1766985;81;25663;-62
2023/11/01 11:00:32;;;;;;;1.07;0.98;;;;;;;18.80;45.96;99642.37;1767011;81;25628;-59
2023/11/01 11:03:04;;;;;;;3.30;1.45;;;;;;;18.85;44.53;99640.69;1767134;81;27727;-59
2023/11/01 11:05:33;;;;;;;1.52;0.98;;;;;;;18.74;44.33;99642.52;1764643;81;25794;-59
2023/11/01 11:08:05;;;;;;;1.87;1.37;;;;;;;18.76;45.86;99641.58;1767197;81;25607;-58
2023/11/01 11:10:36;;;;;;;4.80;2.37;;;;;;;19.18;45.31;99635.41;1761657;81;25538;-61
2023/11/01 11:13:17;;;;;;;3.02;0.95;;;;;;;19.42;45.75;99635.33;1760122;81;25391;-60
2023/11/01 11:15:56;;;;;;;1.65;0.90;;;;;;;19.59;44.76;99641.46;1760130;81;27478;-60
2023/11/01 11:18:24;;;;;;;1.30;0.85;;;;;;;19.83;45.05;99641.97;1759687;81;25545;-61
2023/11/01 11:20:52;;;;;;;1.90;1.10;;;;;;;19.83;42.90;99635.11;1760004;81;25458;-62
2023/11/01 11:23:22;;;;;;;0.90;0.85;;;;;;;19.59;43.19;99641.46;1760071;81;25709;-61
2023/11/01 11:25:51;;;;;;;2.67;1.30;;;;;;;19.49;43.13;99638.09;1758534;81;25568;-60
2023/11/01 11:28:37;;;;;;;2.50;1.32;;;;;;;19.77;44.63;99632.56;1760076;81;33491;-61
2023/11/01 11:31:25;;;;;;;1.92;1.00;;;;;;;19.98;43.69;99635.94;1759955;81;25778;-61
2023/11/01 11:34:01;;;;;;;1.75;1.10;;;;;;;19.98;42.55;99637.91;1759521;81;25566;-61
2023/11/01 11:36:28;;;;;;;1.20;0.90;;;;;;;19.78;42.03;99632.17;1760074;81;26340;-60
2023/11/01 11:39:05;;;;;;;1.47;0.70;;;;;;;19.96;43.19;99638.30;1759968;81;25632;-61